createdAt,value
2018-06-21T00:01:33.079Z,17.87
2018-06-21T00:04:01.254Z,16.60
2018-06-21T00:06:29.437Z,17.17
2018-06-21T00:08:57.594Z,15.97
2018-06-21T00:11:25.784Z,17.43
2018-06-21T00:13:53.947Z,17.60
2018-06-21T00:16:22.112Z,18.30
2018-06-21T00:18:50.279Z,18.20
2018-06-21T00:21:18.451Z,17.07
2018-06-21T00:23:46.635Z,16.57
2018-06-21T00:26:14.801Z,17.87
2018-06-21T00:28:42.962Z,18.43
2018-06-21T00:31:11.135Z,16.93
2018-06-21T00:33:39.309Z,16.77
2018-06-21T00:36:07.490Z,17.57
2018-06-21T00:38:35.638Z,16.50
2018-06-21T00:41:03.802Z,17.43
2018-06-21T00:43:32.010Z,17.47
2018-06-21T00:46:00.174Z,17.63
2018-06-21T00:48:28.338Z,17.27
2018-06-21T00:50:56.724Z,16.97
2018-06-21T00:53:25.031Z,17.20
2018-06-21T00:56:27.102Z,17.50
2018-06-21T00:58:55.263Z,17.07
2018-06-21T01:01:23.446Z,17.97
2018-06-21T01:03:51.614Z,17.37
2018-06-21T01:06:19.783Z,17.80
2018-06-21T01:08:47.959Z,18.23
2018-06-21T01:11:16.135Z,18.40
2018-06-21T01:13:44.302Z,17.77
2018-06-21T01:16:12.538Z,17.90
2018-06-21T01:18:40.695Z,17.67
2018-06-21T01:21:08.881Z,17.50
2018-06-21T01:23:37.042Z,18.97
2018-06-21T01:26:05.344Z,18.73
2018-06-21T01:28:33.516Z,18.27
2018-06-21T01:31:01.687Z,18.20
2018-06-21T01:33:29.851Z,17.70
2018-06-21T01:35:58.039Z,18.30
2018-06-21T01:38:26.206Z,20.10
2018-06-21T01:40:54.382Z,20.80
2018-06-21T01:43:22.567Z,22.10
2018-06-21T01:45:50.747Z,20.80
2018-06-21T01:48:18.935Z,20.37
2018-06-21T01:50:47.103Z,20.47
2018-06-21T01:53:15.258Z,20.20
2018-06-21T01:55:43.431Z,20.40
2018-06-21T01:58:11.602Z,21.73
2018-06-21T02:00:39.807Z,20.10
2018-06-21T02:03:07.974Z,18.43
2018-06-21T02:05:36.320Z,18.07
2018-06-21T02:08:04.510Z,18.20
2018-06-21T02:10:32.662Z,18.20
2018-06-21T02:13:00.827Z,18.93
2018-06-21T02:15:28.996Z,19.97
2018-06-21T02:17:57.150Z,19.57
2018-06-21T02:20:25.312Z,19.07
2018-06-21T02:22:53.463Z,18.80
2018-06-21T02:25:21.656Z,19.90
2018-06-21T02:27:49.802Z,19.00
2018-06-21T02:30:17.975Z,19.03
2018-06-21T02:32:46.155Z,19.20
2018-06-21T02:35:14.319Z,17.90
2018-06-21T02:37:42.497Z,18.63
2018-06-21T02:40:10.667Z,18.83
2018-06-21T02:42:38.837Z,18.30
2018-06-21T02:45:07.007Z,19.97
2018-06-21T02:47:35.182Z,19.00
2018-06-21T02:50:03.366Z,19.00
2018-06-21T02:52:32.760Z,20.30
2018-06-21T02:55:00.927Z,21.50
2018-06-21T02:57:29.296Z,20.60
2018-06-21T02:59:57.520Z,20.23
2018-06-21T03:02:25.737Z,22.10
2018-06-21T03:04:53.911Z,21.00
2018-06-21T03:07:22.096Z,22.67
2018-06-21T03:09:50.260Z,20.60
2018-06-21T03:12:23.179Z,20.63
2018-06-21T03:14:52.327Z,20.77
2018-06-21T03:17:20.532Z,21.50
2018-06-21T03:19:48.727Z,20.77
2018-06-21T03:22:16.911Z,20.93
2018-06-21T03:24:45.089Z,21.40
2018-06-21T03:27:13.258Z,21.20
2018-06-21T03:29:41.467Z,21.80
2018-06-21T03:32:09.960Z,22.07
2018-06-21T03:34:38.337Z,21.47
2018-06-21T03:37:06.515Z,20.90
2018-06-21T03:39:34.707Z,20.77
2018-06-21T03:42:02.874Z,21.20
2018-06-21T03:44:31.044Z,20.67
2018-06-21T03:46:59.223Z,21.57
2018-06-21T03:49:27.382Z,20.73
2018-06-21T03:51:55.547Z,19.70
2018-06-21T03:54:23.702Z,19.50
2018-06-21T03:56:51.856Z,18.40
2018-06-21T03:59:20.019Z,19.63
2018-06-21T04:01:48.214Z,17.90
2018-06-21T04:04:16.403Z,18.20
2018-06-21T04:06:44.574Z,17.67
2018-06-21T04:09:12.978Z,16.30
2018-06-21T04:11:41.178Z,18.07
2018-06-21T04:14:09.347Z,17.67
2018-06-21T04:16:37.995Z,17.37
2018-06-21T04:19:06.239Z,15.70
2018-06-21T04:21:34.443Z,15.80
2018-06-21T04:24:02.749Z,16.87
2018-06-21T04:26:30.919Z,16.00
2018-06-21T04:28:59.098Z,16.90
2018-06-21T04:31:27.271Z,16.50
2018-06-21T04:33:55.443Z,17.00
2018-06-21T04:36:24.146Z,18.27
2018-06-21T04:38:52.306Z,16.37
2018-06-21T04:41:20.479Z,16.90
2018-06-21T04:43:48.659Z,15.60
2018-06-21T04:46:16.820Z,16.33
2018-06-21T04:48:45.427Z,18.30
2018-06-21T04:51:13.691Z,16.40
2018-06-21T04:53:41.891Z,17.20
2018-06-21T04:56:10.062Z,16.20
2018-06-21T04:58:38.223Z,15.77
2018-06-21T05:01:06.903Z,17.30
2018-06-21T05:03:35.056Z,16.83
2018-06-21T05:06:03.228Z,17.23
2018-06-21T05:08:31.391Z,18.10
2018-06-21T05:10:59.543Z,20.17
2018-06-21T05:13:27.715Z,20.23
2018-06-21T05:15:55.936Z,19.83
2018-06-21T05:18:24.108Z,20.87
2018-06-21T05:20:53.320Z,23.47
2018-06-21T05:23:21.475Z,22.67
2018-06-21T05:25:49.638Z,21.73
2018-06-21T05:28:17.850Z,23.37
2018-06-21T05:30:46.003Z,22.07
2018-06-21T05:33:14.303Z,24.47
2018-06-21T05:35:42.476Z,24.73
2018-06-21T05:38:10.667Z,24.67
2018-06-21T05:40:38.854Z,26.67
2018-06-21T05:43:07.035Z,28.83
2018-06-21T05:45:35.480Z,31.93
2018-06-21T05:48:04.351Z,33.33
2018-06-21T05:50:33.607Z,36.87
2018-06-21T05:53:02.034Z,30.57
2018-06-21T05:55:31.169Z,29.87
2018-06-21T05:57:59.606Z,30.73
2018-06-21T06:00:27.873Z,31.10
2018-06-21T06:02:56.167Z,30.87
2018-06-21T06:05:24.335Z,30.80
2018-06-21T06:07:52.547Z,34.40
2018-06-21T06:10:21.403Z,31.40
2018-06-21T06:12:49.611Z,31.40
2018-06-21T06:15:17.794Z,30.50
2018-06-21T06:17:46.020Z,31.70
2018-06-21T06:20:14.196Z,30.93
2018-06-21T06:22:42.399Z,31.27
2018-06-21T06:25:10.575Z,31.57
2018-06-21T06:27:38.762Z,33.00
2018-06-21T06:30:07.451Z,31.97
2018-06-21T06:32:35.659Z,32.83
2018-06-21T06:35:03.843Z,35.30
2018-06-21T06:37:32.042Z,37.43
2018-06-21T06:40:00.252Z,40.07
2018-06-21T06:42:28.435Z,39.70
2018-06-21T06:44:56.630Z,41.00
2018-06-21T06:47:25.056Z,42.53
2018-06-21T06:49:53.255Z,41.67
2018-06-21T06:52:21.459Z,39.50
2018-06-21T06:54:49.701Z,40.27
2018-06-21T06:57:17.878Z,41.93
2018-06-21T06:59:46.093Z,40.73
2018-06-21T07:02:14.292Z,41.30
2018-06-21T07:04:42.484Z,37.33
2018-06-21T07:07:10.695Z,42.70
2018-06-21T07:09:38.852Z,38.70
2018-06-21T07:12:07.058Z,39.50
2018-06-21T07:14:35.247Z,37.50
2018-06-21T07:17:03.446Z,35.83
2018-06-21T07:19:31.623Z,35.13
2018-06-21T07:21:59.815Z,35.27
2018-06-21T07:24:27.991Z,34.50
2018-06-21T07:26:56.175Z,32.67
2018-06-21T07:29:24.346Z,34.90
2018-06-21T07:31:52.534Z,33.37
2018-06-21T07:34:20.711Z,32.60
2018-06-21T07:36:48.879Z,31.73
2018-06-21T07:39:17.061Z,32.40
2018-06-21T07:41:45.239Z,29.93
2018-06-21T07:44:13.411Z,31.27
2018-06-21T07:46:41.579Z,29.60
2018-06-21T07:49:09.754Z,30.03
2018-06-21T07:51:37.919Z,31.20
2018-06-21T07:54:06.099Z,29.13
2018-06-21T07:56:34.285Z,31.50
2018-06-21T07:59:02.483Z,29.53
2018-06-21T08:01:30.660Z,30.33
2018-06-21T08:03:58.819Z,28.90
2018-06-21T08:06:27.011Z,30.03
2018-06-21T08:08:55.154Z,27.83
2018-06-21T08:11:23.316Z,29.03
2018-06-21T08:13:51.470Z,29.43
2018-06-21T08:16:19.643Z,26.10
2018-06-21T08:18:47.801Z,28.43
2018-06-21T08:21:15.950Z,27.70
2018-06-21T08:23:44.134Z,28.10
2018-06-21T08:26:12.303Z,25.87
2018-06-21T08:28:40.508Z,21.30
2018-06-21T08:31:08.770Z,18.70
2018-06-21T08:33:36.951Z,18.10
2018-06-21T08:36:05.119Z,17.60
2018-06-21T08:38:33.303Z,14.70
2018-06-21T08:41:01.474Z,14.83
2018-06-21T08:43:29.646Z,14.20
2018-06-21T08:45:57.832Z,14.83
2018-06-21T08:48:25.986Z,12.80
2018-06-21T08:50:54.175Z,13.53
2018-06-21T08:53:22.505Z,13.97
2018-06-21T08:55:50.658Z,13.73
2018-06-21T08:58:18.890Z,14.67
2018-06-21T09:00:47.002Z,12.87
2018-06-21T09:03:15.202Z,13.70
2018-06-21T09:05:43.363Z,13.00
2018-06-21T09:08:11.515Z,14.17
2018-06-21T09:10:39.699Z,12.43
2018-06-21T09:13:07.874Z,12.90
2018-06-21T09:15:36.084Z,12.33
2018-06-21T09:18:04.251Z,12.60
2018-06-21T09:20:32.435Z,13.10
2018-06-21T09:23:00.602Z,11.73
2018-06-21T09:25:28.759Z,11.20
2018-06-21T09:27:56.930Z,11.70
2018-06-21T09:30:25.095Z,11.20
2018-06-21T09:32:53.265Z,11.70
2018-06-21T09:35:21.424Z,11.90
2018-06-21T09:37:54.919Z,11.57
2018-06-21T09:40:28.428Z,12.20
2018-06-21T09:43:01.799Z,11.50
2018-06-21T09:45:35.236Z,11.80
2018-06-21T09:48:08.683Z,10.40
2018-06-21T09:50:36.838Z,10.93
2018-06-21T09:53:05.021Z,10.20
2018-06-21T09:55:33.195Z,10.70
2018-06-21T09:58:01.387Z,10.50
2018-06-21T10:00:34.774Z,10.70
2018-06-21T10:03:02.938Z,12.63
2018-06-21T10:05:31.115Z,11.23
2018-06-21T10:07:59.303Z,11.87
2018-06-21T10:10:27.466Z,12.60
2018-06-21T10:12:55.630Z,11.87
2018-06-21T10:15:23.804Z,11.63
2018-06-21T10:17:51.986Z,10.83
2018-06-21T10:20:20.158Z,11.73
2018-06-21T10:22:48.314Z,12.10
2018-06-21T10:25:16.470Z,11.47
2018-06-21T10:27:44.648Z,13.60
2018-06-21T10:30:12.814Z,11.90
2018-06-21T10:32:40.974Z,10.50
2018-06-21T10:35:09.165Z,11.23
2018-06-21T10:37:37.319Z,10.20
2018-06-21T10:40:05.503Z,13.53
2018-06-21T10:42:33.678Z,10.10
2018-06-21T10:45:01.828Z,10.07
2018-06-21T10:47:29.994Z,9.33
2018-06-21T10:49:58.154Z,9.03
2018-06-21T10:52:26.323Z,18.87
2018-06-21T10:54:54.495Z,10.17
2018-06-21T10:57:22.659Z,9.73
2018-06-21T10:59:50.819Z,19.33
2018-06-21T11:02:19.040Z,10.40
2018-06-21T11:04:47.206Z,10.20
2018-06-21T11:07:15.491Z,9.93
2018-06-21T11:09:43.666Z,10.27
2018-06-21T11:12:11.833Z,9.63
2018-06-21T11:14:40.007Z,10.13
2018-06-21T11:17:08.175Z,10.40
2018-06-21T11:19:36.352Z,10.63
2018-06-21T11:22:04.507Z,8.60
2018-06-21T11:24:32.675Z,10.83
2018-06-21T11:27:00.886Z,10.40
2018-06-21T11:29:29.043Z,11.23
2018-06-21T11:31:57.199Z,10.80
2018-06-21T11:34:25.375Z,10.57
2018-06-21T11:36:53.530Z,10.90
2018-06-21T11:39:21.719Z,10.40
2018-06-21T11:41:49.894Z,14.50
2018-06-21T11:44:18.055Z,12.57
2018-06-21T11:46:46.267Z,9.90
2018-06-21T11:49:14.411Z,9.53
2018-06-21T11:51:42.582Z,13.67
2018-06-21T11:54:10.733Z,9.80
2018-06-21T11:56:38.901Z,9.60
2018-06-21T11:59:07.068Z,11.43
2018-06-21T12:01:35.299Z,9.47
2018-06-21T12:04:03.463Z,9.60
2018-06-21T12:06:31.742Z,10.73
2018-06-21T12:08:59.901Z,11.40
2018-06-21T12:11:28.070Z,9.27
2018-06-21T12:13:56.239Z,10.50
2018-06-21T12:16:24.403Z,9.97
2018-06-21T12:18:52.567Z,10.60
2018-06-21T12:21:20.735Z,15.40
2018-06-21T12:23:48.903Z,13.37
2018-06-21T12:26:17.106Z,10.83
2018-06-21T12:28:45.271Z,13.90
2018-06-21T12:31:13.423Z,13.50
2018-06-21T12:33:41.626Z,9.63
2018-06-21T12:36:09.803Z,9.30
2018-06-21T12:38:37.966Z,10.33
2018-06-21T12:41:06.147Z,8.57
2018-06-21T12:43:34.314Z,9.50
2018-06-21T12:46:02.463Z,10.37
2018-06-21T12:48:30.642Z,9.10
2018-06-21T12:50:58.786Z,9.90
2018-06-21T12:53:26.959Z,10.23
2018-06-21T12:55:55.122Z,10.93
2018-06-21T12:58:23.319Z,9.23
2018-06-21T13:00:51.487Z,11.00
2018-06-21T13:03:19.655Z,9.70
2018-06-21T13:05:47.822Z,10.20
2018-06-21T13:09:24.439Z,9.00
2018-06-21T13:12:18.407Z,12.27
2018-06-21T13:14:46.602Z,9.77
2018-06-21T13:17:14.782Z,9.17
2018-06-21T13:19:42.954Z,10.20
2018-06-21T13:22:11.129Z,9.83
2018-06-21T13:24:39.311Z,13.00
2018-06-21T13:27:07.512Z,11.10
2018-06-21T13:29:35.933Z,10.90
2018-06-21T13:32:04.115Z,10.13
2018-06-21T13:34:32.288Z,10.00
2018-06-21T13:37:00.502Z,10.43
2018-06-21T13:39:28.635Z,11.60
2018-06-21T13:41:56.818Z,12.30
2018-06-21T13:44:24.982Z,14.43
2018-06-21T13:46:53.150Z,10.20
2018-06-21T13:49:21.691Z,14.57
2018-06-21T13:51:49.882Z,9.50
2018-06-21T13:54:18.050Z,9.47
2018-06-21T13:56:47.355Z,9.97
2018-06-21T13:59:16.195Z,10.80
2018-06-21T14:01:44.327Z,10.37
2018-06-21T14:04:12.664Z,13.47
2018-06-21T14:06:40.943Z,12.13
2018-06-21T14:09:10.959Z,12.50
2018-06-21T14:11:39.154Z,12.40
2018-06-21T14:14:07.370Z,10.83
2018-06-21T14:16:35.877Z,12.40
2018-06-21T14:19:04.084Z,10.50
2018-06-21T14:21:32.325Z,11.03
2018-06-21T14:24:00.495Z,13.33
2018-06-21T14:26:28.661Z,9.97
2018-06-21T14:28:56.970Z,10.00
2018-06-21T14:31:25.514Z,14.57
2018-06-21T14:33:54.100Z,12.30
2018-06-21T14:36:22.299Z,13.70
2018-06-21T14:38:50.454Z,8.90
2018-06-21T14:41:18.610Z,9.23
2018-06-21T14:43:46.766Z,9.63
2018-06-21T14:46:14.938Z,9.90
2018-06-21T14:48:43.103Z,9.90
2018-06-21T14:51:11.283Z,10.77
2018-06-21T14:53:39.477Z,9.40
2018-06-21T14:56:07.603Z,9.90
2018-06-21T14:58:35.770Z,11.43
2018-06-21T15:01:03.959Z,9.80
2018-06-21T15:03:32.138Z,10.00
2018-06-21T15:06:00.419Z,9.90
2018-06-21T15:08:28.587Z,9.10
2018-06-21T15:10:56.921Z,14.90
2018-06-21T15:13:25.096Z,9.90
2018-06-21T15:15:53.268Z,9.50
2018-06-21T15:18:21.428Z,12.53
2018-06-21T15:20:49.590Z,10.20
2018-06-21T15:23:17.745Z,10.13
2018-06-21T15:25:45.919Z,9.50
2018-06-21T15:28:14.098Z,13.90
2018-06-21T15:30:42.283Z,10.47
2018-06-21T15:33:10.439Z,9.43
2018-06-21T15:35:38.594Z,13.80
2018-06-21T15:38:06.777Z,8.70
2018-06-21T15:40:34.962Z,8.30
2018-06-21T15:43:03.142Z,9.13
2018-06-21T15:45:31.419Z,9.03
2018-06-21T15:47:59.540Z,11.23
2018-06-21T15:50:27.694Z,9.20
2018-06-21T15:52:55.900Z,11.60
2018-06-21T15:55:24.063Z,7.90
2018-06-21T15:57:52.223Z,8.47
2018-06-21T16:00:20.379Z,8.73
2018-06-21T16:02:48.574Z,8.27
2018-06-21T16:05:16.732Z,13.90
2018-06-21T16:07:44.895Z,10.83
2018-06-21T16:10:13.050Z,9.90
2018-06-21T16:12:41.224Z,8.63
2018-06-21T16:15:09.398Z,10.50
2018-06-21T16:17:37.564Z,9.50
2018-06-21T16:20:05.726Z,14.77
2018-06-21T16:22:33.891Z,8.80
2018-06-21T16:25:02.043Z,8.20
2018-06-21T16:27:30.200Z,9.20
2018-06-21T16:29:58.380Z,8.80
2018-06-21T16:32:26.552Z,8.60
2018-06-21T16:34:54.787Z,9.33
2018-06-21T16:37:23.020Z,9.77
2018-06-21T16:39:51.489Z,8.37
2018-06-21T16:42:19.691Z,13.70
2018-06-21T16:44:47.948Z,9.43
2018-06-21T16:47:16.179Z,9.20
2018-06-21T16:49:44.446Z,8.27
2018-06-21T16:52:12.881Z,13.57
2018-06-21T16:54:41.679Z,9.40
2018-06-21T16:57:09.879Z,9.67
2018-06-21T16:59:38.047Z,8.30
2018-06-21T17:02:06.242Z,8.70
2018-06-21T17:04:34.462Z,8.40
2018-06-21T17:07:02.691Z,7.97
2018-06-21T17:09:30.882Z,8.80
2018-06-21T17:11:59.055Z,11.70
2018-06-21T17:14:27.238Z,8.27
2018-06-21T17:16:55.531Z,8.63
2018-06-21T17:19:23.682Z,8.27
2018-06-21T17:21:51.902Z,9.40
2018-06-21T17:24:20.131Z,7.33
2018-06-21T17:26:48.323Z,13.07
2018-06-21T17:29:16.549Z,7.67
2018-06-21T17:31:44.819Z,8.40
2018-06-21T17:34:12.966Z,8.40
2018-06-21T17:36:41.553Z,8.50
2018-06-21T17:39:10.651Z,8.50
2018-06-21T17:41:38.812Z,8.17
2018-06-21T17:44:06.982Z,8.23
2018-06-21T17:46:35.315Z,9.60
2018-06-21T17:49:03.532Z,8.30
2018-06-21T17:51:31.773Z,9.23
2018-06-21T17:53:59.925Z,9.23
2018-06-21T17:56:28.127Z,14.50
2018-06-21T17:58:56.299Z,8.17
2018-06-21T18:01:24.478Z,8.40
2018-06-21T18:03:52.691Z,8.53
2018-06-21T18:06:20.936Z,8.70
2018-06-21T18:08:49.502Z,9.43
2018-06-21T18:11:17.770Z,11.57
2018-06-21T18:13:45.987Z,8.50
2018-06-21T18:16:14.385Z,13.20
2018-06-21T18:18:42.715Z,11.83
2018-06-21T18:21:10.920Z,8.70
2018-06-21T18:23:39.227Z,8.50
2018-06-21T18:26:07.868Z,8.93
2018-06-21T18:28:36.114Z,9.13
2018-06-21T18:31:04.330Z,8.53
2018-06-21T18:33:32.695Z,9.23
2018-06-21T18:36:00.945Z,13.00
2018-06-21T18:38:29.191Z,8.50
2018-06-21T18:40:57.371Z,9.13
2018-06-21T18:43:25.560Z,8.53
2018-06-21T18:45:53.758Z,11.33
2018-06-21T18:48:22.003Z,8.80
2018-06-21T18:50:50.465Z,9.30
2018-06-21T18:53:18.854Z,8.63
2018-06-21T18:55:47.335Z,8.60
2018-06-21T18:58:15.603Z,9.30
2018-06-21T19:00:44.102Z,10.40
2018-06-21T19:03:12.331Z,9.40
2018-06-21T19:05:40.531Z,9.20
2018-06-21T19:08:14.055Z,10.07
2018-06-21T19:10:47.769Z,10.53
2018-06-21T19:13:15.803Z,9.73
2018-06-21T19:15:44.017Z,16.53
2018-06-21T19:18:12.258Z,10.33
2018-06-21T19:20:40.467Z,10.50
2018-06-21T19:23:08.727Z,10.20
2018-06-21T19:25:36.967Z,9.70
2018-06-21T19:28:05.063Z,9.63
2018-06-21T19:30:33.240Z,10.40
2018-06-21T19:33:01.412Z,11.13
2018-06-21T19:35:29.591Z,10.03
2018-06-21T19:37:57.778Z,10.00
2018-06-21T19:40:25.951Z,10.57
2018-06-21T19:42:54.163Z,10.33
2018-06-21T19:45:22.315Z,11.43
2018-06-21T19:47:50.467Z,10.40
2018-06-21T19:50:18.639Z,11.33
2018-06-21T19:52:46.795Z,11.30
2018-06-21T19:55:16.287Z,11.40
2018-06-21T19:57:44.459Z,11.67
2018-06-21T20:00:12.630Z,11.77
2018-06-21T20:02:46.130Z,10.80
2018-06-21T20:05:14.303Z,10.83
2018-06-21T20:07:42.475Z,10.57
2018-06-21T20:10:10.775Z,10.87
2018-06-21T20:12:38.983Z,10.57
2018-06-21T20:15:07.110Z,13.60
2018-06-21T20:17:35.443Z,11.17
2018-06-21T20:20:08.926Z,11.07
2018-06-21T20:22:37.111Z,11.67
2018-06-21T20:25:05.271Z,12.40
2018-06-21T20:27:33.429Z,16.73
2018-06-21T20:30:01.595Z,11.27
2018-06-21T20:32:29.746Z,11.40
2018-06-21T20:34:58.053Z,10.50
2018-06-21T20:37:26.442Z,11.00
2018-06-21T20:39:54.615Z,14.10
2018-06-21T20:42:22.779Z,12.40
2018-06-21T20:44:50.946Z,13.70
2018-06-21T20:47:19.330Z,11.43
2018-06-21T20:49:47.607Z,11.97
2018-06-21T20:52:21.155Z,12.77
2018-06-21T20:54:49.314Z,10.90
2018-06-21T20:57:17.472Z,13.20
2018-06-21T20:59:45.627Z,10.80
2018-06-21T21:02:13.793Z,12.60
2018-06-21T21:05:18.548Z,10.43
2018-06-21T21:07:47.923Z,14.23
2018-06-21T21:10:17.159Z,11.60
2018-06-21T21:12:45.286Z,14.03
2018-06-21T21:15:14.266Z,14.00
2018-06-21T21:17:42.578Z,14.80
2018-06-21T21:20:11.047Z,14.87
2018-06-21T21:22:40.060Z,13.33
2018-06-21T21:25:08.198Z,13.57
2018-06-21T21:27:36.348Z,12.80
2018-06-21T21:30:06.847Z,12.10
2018-06-21T21:32:35.129Z,12.87
2018-06-21T21:35:03.275Z,12.27
2018-06-21T21:37:31.387Z,12.30
2018-06-21T21:40:01.694Z,12.03
2018-06-21T21:42:30.962Z,12.00
2018-06-21T21:44:59.136Z,11.60
2018-06-21T21:47:27.303Z,11.87
2018-06-21T21:49:55.590Z,11.67
2018-06-21T21:52:23.766Z,12.37
2018-06-21T21:54:51.934Z,12.13
2018-06-21T21:57:20.231Z,11.20
2018-06-21T21:59:49.207Z,10.83
2018-06-21T22:02:17.786Z,15.20
2018-06-21T22:04:46.274Z,11.83
2018-06-21T22:07:14.547Z,12.83
2018-06-21T22:09:42.830Z,11.60
2018-06-21T22:12:10.964Z,13.40
2018-06-21T22:14:39.121Z,11.70
2018-06-21T22:17:07.261Z,12.10
2018-06-21T22:19:35.390Z,12.73
2018-06-21T22:22:03.515Z,11.43
2018-06-21T22:24:31.654Z,13.50
2018-06-21T22:26:59.794Z,13.77
2018-06-21T22:29:27.934Z,11.13
2018-06-21T22:31:56.075Z,11.93
2018-06-21T22:34:24.202Z,11.27
2018-06-21T22:36:52.359Z,11.47
2018-06-21T22:39:20.490Z,15.23
2018-06-21T22:41:48.622Z,16.47
2018-06-21T22:44:16.747Z,16.80
2018-06-21T22:46:44.862Z,13.33
2018-06-21T22:49:13.008Z,12.80
2018-06-21T22:51:41.147Z,11.20
2018-06-21T22:54:09.272Z,11.50
2018-06-21T22:56:37.404Z,11.83
2018-06-21T22:59:05.527Z,11.93
2018-06-21T23:01:33.666Z,12.73
2018-06-21T23:04:01.807Z,14.53
2018-06-21T23:06:29.942Z,11.10
2018-06-21T23:08:58.084Z,13.33
2018-06-21T23:11:26.223Z,11.67
2018-06-21T23:13:54.354Z,11.07
2018-06-21T23:16:22.495Z,11.10
2018-06-21T23:19:01.952Z,11.63
2018-06-21T23:21:30.077Z,12.50
2018-06-21T23:23:58.215Z,13.90
2018-06-21T23:26:26.338Z,11.47
2018-06-21T23:28:54.480Z,12.07
2018-06-21T23:31:22.607Z,16.83
2018-06-21T23:33:50.744Z,11.67
2018-06-21T23:36:18.887Z,17.47
2018-06-21T23:38:47.025Z,11.80
2018-06-21T23:41:15.164Z,11.73
2018-06-21T23:43:43.292Z,13.07
2018-06-21T23:46:11.435Z,13.73
2018-06-21T23:48:39.582Z,12.10
2018-06-21T23:51:07.719Z,14.77
2018-06-21T23:53:35.870Z,11.83
2018-06-21T23:56:04.001Z,11.73
2018-06-21T23:58:32.150Z,12.53
